Time;durP1;ratioP1;P1;durP2;ratioP2;P2;SDS_P1;SDS_P2;PMS_P1;PMS_P2;Temp;Humidity;BMP_temperature;BMP_pressure;BME280_temperature;BME280_humidity;BME280_pressure;Samples;Min_cycle;Max_cycle;Signal;HPM_P1;HPM_P2
2022/11/18 00:01:20;;;;;;;2.90;1.00;;;19.50;44.90;;;;;;5036309;28;20040;-57
2022/11/18 00:03:46;;;;;;;2.58;1.08;;;19.50;45.60;;;;;;5035346;28;20190;-60
2022/11/18 00:06:18;;;;;;;1.90;1.05;;;19.50;45.00;;;;;;5035232;28;20040;-60
2022/11/18 00:08:44;;;;;;;2.55;1.20;;;19.50;45.00;;;;;;5035128;28;20044;-55
2022/11/18 00:14:17;;;;;;;2.33;0.93;;;19.50;45.00;;;;;;5035799;28;20048;-58
2022/11/18 00:16:43;;;;;;;1.50;0.75;;;19.50;45.00;;;;;;5034654;28;20034;-58
2022/11/18 00:19:09;;;;;;;3.25;1.00;;;19.50;45.00;;;;;;5035550;28;20037;-60
2022/11/18 00:21:34;;;;;;;2.35;0.93;;;19.50;45.00;;;;;;5036075;28;20029;-60
2022/11/18 00:24:00;;;;;;;2.80;1.00;;;19.50;45.10;;;;;;5035149;28;20037;-60
2022/11/18 00:26:26;;;;;;;1.95;1.00;;;19.50;45.10;;;;;;5036260;28;20094;-59
2022/11/18 00:28:51;;;;;;;2.53;1.08;;;19.50;45.10;;;;;;5036571;28;20021;-58
2022/11/18 00:31:17;;;;;;;2.92;1.15;;;19.50;45.10;;;;;;5035881;28;20029;-58
2022/11/18 00:33:43;;;;;;;1.85;1.00;;;19.50;45.10;;;;;;5036332;28;20413;-60
2022/11/18 00:36:11;;;;;;;1.48;0.98;;;19.50;45.10;;;;;;5035874;28;20516;-59
2022/11/18 00:38:37;;;;;;;2.35;1.10;;;19.50;45.10;;;;;;5035707;28;20037;-57
2022/11/18 00:41:06;;;;;;;2.83;0.90;;;19.50;45.10;;;;;;5035701;28;20396;-57
2022/11/18 00:43:33;;;;;;;2.95;1.05;;;19.50;45.10;;;;;;5034598;28;20107;-60
2022/11/18 00:45:59;;;;;;;2.58;1.10;;;19.50;45.10;;;;;;5034459;28;20364;-59
2022/11/18 00:48:25;;;;;;;2.55;1.02;;;19.50;45.10;;;;;;5035758;28;20034;-60
2022/11/18 00:50:54;;;;;;;3.38;1.00;;;19.50;45.10;;;;;;5034155;28;20034;-60
2022/11/18 00:53:22;;;;;;;1.80;0.90;;;19.50;45.10;;;;;;5034701;28;20385;-59
2022/11/18 00:55:48;;;;;;;1.83;0.80;;;19.50;45.10;;;;;;5035511;28;20037;-59
2022/11/18 00:58:14;;;;;;;2.60;0.93;;;19.50;45.10;;;;;;5035514;28;20033;-60
2022/11/18 01:00:42;;;;;;;1.98;0.95;;;19.50;45.10;;;;;;5034889;28;20034;-58
2022/11/18 01:03:10;;;;;;;3.88;1.20;;;19.50;45.20;;;;;;5034347;28;20366;-57
2022/11/18 01:05:36;;;;;;;2.45;1.30;;;19.50;45.10;;;;;;5035220;28;20111;-58
2022/11/18 01:08:03;;;;;;;2.90;1.05;;;19.50;45.20;;;;;;5034705;28;20040;-59
2022/11/18 01:10:29;;;;;;;2.13;1.10;;;19.50;45.20;;;;;;5034318;28;20390;-60
2022/11/18 01:15:45;;;;;;;2.00;1.10;;;19.50;45.20;;;;;;5033922;28;20041;-58
2022/11/18 01:18:11;;;;;;;2.47;1.27;;;19.50;45.20;;;;;;5051846;28;20547;-60
2022/11/18 01:20:37;;;;;;;3.33;1.27;;;19.50;45.20;;;;;;5054997;28;20068;-59
2022/11/18 01:23:04;;;;;;;2.17;0.90;;;19.50;45.20;;;;;;5037273;28;20045;-59
2022/11/18 01:25:30;;;;;;;2.15;1.00;;;19.50;45.20;;;;;;5055176;28;20032;-59
2022/11/18 01:27:56;;;;;;;2.38;1.08;;;19.50;45.20;;;;;;5037075;28;20118;-60
2022/11/18 01:30:22;;;;;;;2.92;1.13;;;19.50;45.20;;;;;;5054846;28;20095;-60
2022/11/18 01:32:48;;;;;;;2.03;0.88;;;19.50;45.20;;;;;;5054788;28;20044;-60
2022/11/18 01:35:14;;;;;;;2.83;1.00;;;19.50;45.20;;;;;;5037283;28;20032;-60
2022/11/18 01:37:40;;;;;;;1.73;0.90;;;19.50;45.20;;;;;;5020118;28;20082;-60
2022/11/18 01:40:08;;;;;;;2.20;0.88;;;19.50;45.20;;;;;;5037401;28;20029;-58
2022/11/18 01:42:34;;;;;;;2.83;1.00;;;19.50;45.20;;;;;;5054368;28;20094;-60
2022/11/18 01:45:08;;;;;;;1.92;1.10;;;19.40;45.10;;;;;;5054589;28;20033;-59
2022/11/18 01:47:42;;;;;;;2.97;1.13;;;19.50;45.20;;;;;;5054690;28;20029;-59
2022/11/18 01:50:10;;;;;;;1.20;0.70;;;19.50;45.20;;;;;;5054526;28;20029;-59
2022/11/18 01:52:36;;;;;;;2.22;1.00;;;19.50;45.40;;;;;;5054859;28;20382;-54
2022/11/18 01:55:11;;;;;;;1.73;0.90;;;19.50;45.20;;;;;;5054556;28;20064;-59
2022/11/18 01:57:38;;;;;;;2.10;0.93;;;19.40;45.20;;;;;;5054295;28;20395;-53
2022/11/18 02:00:05;;;;;;;3.38;0.95;;;19.50;45.30;;;;;;5036967;28;20352;-59
2022/11/18 02:02:33;;;;;;;2.83;0.98;;;19.50;45.20;;;;;;5037223;28;20464;-60
2022/11/18 02:05:01;;;;;;;2.17;0.93;;;19.50;45.30;;;;;;5054068;28;20056;-58
2022/11/18 02:07:27;;;;;;;3.20;1.30;;;19.50;45.30;;;;;;5054252;28;20071;-59
2022/11/18 02:09:56;;;;;;;2.33;1.00;;;19.40;45.30;;;;;;5036587;28;20075;-58
2022/11/18 02:12:22;;;;;;;2.20;1.10;;;19.40;45.30;;;;;;5054652;28;20052;-58
2022/11/18 02:14:49;;;;;;;2.90;1.30;;;19.50;45.30;;;;;;5036588;28;20443;-60
2022/11/18 02:17:30;;;;;;;3.00;1.10;;;19.50;45.40;;;;;;5054338;28;20056;-56
2022/11/18 02:19:59;;;;;;;3.22;1.15;;;19.50;46.00;;;;;;5054300;28;20044;-58
2022/11/18 02:22:43;;;;;;;3.22;1.15;;;19.40;45.40;;;;;;5036705;28;20063;-59
2022/11/18 02:25:39;;;;;;;3.28;1.10;;;19.40;45.40;;;;;;5054017;28;20368;-59
2022/11/18 02:28:40;;;;;;;2.10;1.00;;;19.40;45.40;;;;;;5054511;28;20063;-59
2022/11/18 02:31:11;;;;;;;1.75;0.90;;;19.40;45.40;;;;;;5020005;28;20025;-56
2022/11/18 02:33:50;;;;;;;2.38;1.00;;;19.40;45.40;;;;;;5036857;28;20051;-59
2022/11/18 02:36:30;;;;;;;1.83;1.08;;;19.40;45.40;;;;;;5054549;28;20052;-57
2022/11/18 02:39:06;;;;;;;2.40;1.15;;;19.40;45.40;;;;;;5054240;28;20483;-57
2022/11/18 02:41:35;;;;;;;3.15;1.00;;;19.40;45.40;;;;;;5036401;28;20044;-58
2022/11/18 02:44:10;;;;;;;2.72;1.00;;;19.40;45.40;;;;;;5053976;28;20037;-57
2022/11/18 02:46:39;;;;;;;3.08;1.17;;;19.40;45.40;;;;;;5053789;28;20045;-58
2022/11/18 02:49:21;;;;;;;1.67;0.90;;;19.40;45.40;;;;;;5036643;28;20090;-55
2022/11/18 02:51:49;;;;;;;2.30;1.13;;;19.40;45.40;;;;;;5057527;28;20037;-58
2022/11/18 02:54:17;;;;;;;2.75;1.33;;;19.40;45.40;;;;;;5039853;28;20025;-57
2022/11/18 02:56:45;;;;;;;2.83;1.00;;;19.40;45.40;;;;;;5040065;28;20286;-58
2022/11/18 02:59:11;;;;;;;2.50;1.10;;;19.40;45.40;;;;;;5057144;28;20224;-57
2022/11/18 03:01:37;;;;;;;2.40;1.05;;;19.40;45.40;;;;;;5039896;28;20119;-57
2022/11/18 03:04:03;;;;;;;2.63;1.00;;;19.40;45.40;;;;;;5057192;28;20028;-57
2022/11/18 03:06:42;;;;;;;2.90;1.17;;;19.40;45.50;;;;;;5039459;28;20436;-60
2022/11/18 03:09:21;;;;;;;3.60;1.25;;;19.40;45.50;;;;;;5039534;28;20361;-56
2022/11/18 03:11:55;;;;;;;3.17;1.00;;;19.40;45.50;;;;;;5057364;28;20025;-57
2022/11/18 03:14:41;;;;;;;;;;;19.40;45.60;;;;;;5057211;28;20033;-59
2022/11/18 03:17:20;;;;;;;3.13;0.90;;;19.40;45.60;;;;;;5025448;28;19924;-57
2022/11/18 03:20:14;;;;;;;2.42;1.00;;;19.40;45.60;;;;;;5056930;28;20035;-59
2022/11/18 03:22:51;;;;;;;2.60;0.77;;;19.40;45.60;;;;;;5057170;28;20055;-56
2022/11/18 03:25:26;;;;;;;1.70;0.80;;;19.30;45.60;;;;;;5039230;28;20021;-57
2022/11/18 03:28:17;;;;;;;1.95;0.70;;;19.40;45.70;;;;;;5057233;28;20356;-59
2022/11/18 03:30:55;;;;;;;1.88;0.80;;;19.40;45.70;;;;;;5057071;28;20029;-57
2022/11/18 03:33:27;;;;;;;1.70;0.80;;;19.30;45.70;;;;;;5057089;28;20040;-58
2022/11/18 03:35:55;;;;;;;1.65;0.85;;;19.40;45.80;;;;;;5022754;28;20025;-58
2022/11/18 03:38:29;;;;;;;1.23;0.70;;;19.30;45.70;;;;;;5056735;28;20124;-58
2022/11/18 03:41:00;;;;;;;2.08;1.00;;;19.40;45.80;;;;;;5056606;28;20036;-57
2022/11/18 03:43:30;;;;;;;1.77;0.90;;;19.40;45.80;;;;;;5056523;28;20048;-59
2022/11/18 03:46:06;;;;;;;2.20;0.77;;;19.40;45.90;;;;;;5056596;28;20037;-58
2022/11/18 03:48:40;;;;;;;2.08;0.88;;;19.30;45.90;;;;;;5056558;28;20051;-56
2022/11/18 03:51:10;;;;;;;2.00;0.70;;;19.40;45.90;;;;;;5039404;28;20029;-56
2022/11/18 03:53:40;;;;;;;1.60;0.73;;;19.40;45.90;;;;;;5056652;28;20041;-56
2022/11/18 03:56:10;;;;;;;1.30;0.85;;;19.30;45.90;;;;;;5056443;28;20301;-59
2022/11/18 03:58:45;;;;;;;1.52;0.80;;;19.30;45.90;;;;;;5056469;28;20037;-55
2022/11/18 04:01:27;;;;;;;2.90;1.00;;;19.40;46.00;;;;;;5055484;28;20029;-57
2022/11/18 04:03:53;;;;;;;1.23;0.60;;;19.30;46.00;;;;;;5039130;28;20052;-58
2022/11/18 04:06:47;;;;;;;1.65;0.85;;;19.30;46.00;;;;;;5038822;28;20094;-59
2022/11/18 04:09:21;;;;;;;2.95;1.00;;;19.40;46.10;;;;;;5055701;28;20553;-57
2022/11/18 04:12:04;;;;;;;3.08;0.90;;;19.40;46.10;;;;;;5038591;28;20025;-57
2022/11/18 04:14:38;;;;;;;1.60;0.70;;;19.30;46.10;;;;;;5056146;28;20086;-58
2022/11/18 04:17:14;;;;;;;1.92;0.98;;;19.40;46.20;;;;;;5055787;28;20051;-59
2022/11/18 04:19:40;;;;;;;3.53;0.80;;;19.30;46.20;;;;;;5055871;28;20037;-56
2022/11/18 04:22:07;;;;;;;2.08;0.75;;;19.40;46.20;;;;;;5055741;28;20123;-58
2022/11/18 04:24:33;;;;;;;1.48;0.80;;;19.40;46.30;;;;;;5055798;28;20033;-57
2022/11/18 04:26:59;;;;;;;1.65;0.70;;;19.40;46.60;;;;;;5055814;28;20094;-58
2022/11/18 04:29:25;;;;;;;1.98;0.80;;;19.40;46.30;;;;;;5037969;28;20033;-57
2022/11/18 04:31:50;;;;;;;1.88;0.70;;;19.40;46.30;;;;;;5038627;28;20036;-59
2022/11/18 04:34:16;;;;;;;1.77;0.70;;;19.30;46.30;;;;;;5055326;28;20051;-56
2022/11/18 04:36:42;;;;;;;2.58;0.73;;;19.40;46.40;;;;;;5056074;28;20057;-59
2022/11/18 04:39:08;;;;;;;2.17;1.08;;;19.30;46.40;;;;;;5055522;28;20113;-59
2022/11/18 04:44:18;;;;;;;3.35;1.15;;;19.40;46.40;;;;;;5055323;28;20033;-56
2022/11/18 04:46:44;;;;;;;2.05;0.90;;;19.30;46.40;;;;;;5055395;28;20097;-57
2022/11/18 04:49:13;;;;;;;2.17;0.90;;;19.40;46.50;;;;;;5054983;28;20040;-56
2022/11/18 04:51:39;;;;;;;1.45;0.70;;;19.40;46.50;;;;;;5037793;28;20037;-55
2022/11/18 04:54:05;;;;;;;1.88;0.90;;;19.40;46.50;;;;;;5054910;28;20474;-58
2022/11/18 04:56:31;;;;;;;2.30;1.02;;;19.40;46.50;;;;;;5055202;28;20114;-59
2022/11/18 04:58:59;;;;;;;2.22;0.68;;;19.40;46.60;;;;;;5037497;28;20068;-58
2022/11/18 05:01:25;;;;;;;1.90;0.60;;;19.40;46.60;;;;;;5055057;28;20464;-58
2022/11/18 05:03:51;;;;;;;2.08;0.90;;;19.40;46.60;;;;;;5037774;28;20068;-58
2022/11/18 05:06:17;;;;;;;2.75;0.90;;;19.30;46.60;;;;;;5037616;28;20079;-59
2022/11/18 05:08:42;;;;;;;2.33;0.90;;;19.30;46.70;;;;;;5021085;28;20025;-56
2022/11/18 05:13:53;;;;;;;1.88;0.70;;;19.40;46.80;;;;;;5054585;28;20036;-56
2022/11/18 05:16:18;;;;;;;2.97;0.80;;;19.30;46.70;;;;;;5054702;28;20037;-57
2022/11/18 05:18:44;;;;;;;2.20;1.00;;;19.40;46.80;;;;;;5037550;28;20029;-57
2022/11/18 05:21:10;;;;;;;2.05;0.70;;;19.30;46.80;;;;;;5054826;28;20360;-58
2022/11/18 05:23:36;;;;;;;0.88;0.60;;;19.30;46.80;;;;;;5037197;28;20029;-53
2022/11/18 05:26:07;;;;;;;1.08;0.60;;;19.30;46.80;;;;;;5054594;28;20127;-59
2022/11/18 05:28:33;;;;;;;1.58;0.70;;;19.30;46.80;;;;;;5054812;28;20032;-58
2022/11/18 05:30:59;;;;;;;1.77;0.80;;;19.30;46.80;;;;;;5037288;28;20039;-58
2022/11/18 05:33:25;;;;;;;1.35;0.70;;;19.30;46.90;;;;;;5037148;28;20033;-58
2022/11/18 05:35:51;;;;;;;1.58;0.70;;;19.40;46.90;;;;;;5055014;28;20024;-55
2022/11/18 05:38:17;;;;;;;1.48;0.80;;;19.30;46.90;;;;;;5054842;28;20032;-59
2022/11/18 05:40:43;;;;;;;1.92;0.82;;;19.30;46.90;;;;;;5037031;28;20060;-57
2022/11/18 05:43:12;;;;;;;2.05;0.80;;;19.30;46.90;;;;;;5054712;28;20115;-58
2022/11/18 05:45:39;;;;;;;1.67;0.80;;;19.30;46.90;;;;;;5036988;28;20041;-58
2022/11/18 05:48:06;;;;;;;1.75;0.90;;;19.40;47.00;;;;;;5054237;28;20040;-57
2022/11/18 05:50:34;;;;;;;1.45;0.80;;;19.30;46.90;;;;;;5037254;28;20075;-59
2022/11/18 05:53:01;;;;;;;2.90;0.80;;;19.40;47.00;;;;;;5054448;28;20463;-58
2022/11/18 05:55:33;;;;;;;1.15;0.63;;;19.30;46.90;;;;;;5054502;28;20061;-56
2022/11/18 05:57:59;;;;;;;1.90;0.80;;;19.30;47.00;;;;;;5054457;28;20037;-57
2022/11/18 06:00:25;;;;;;;2.25;1.00;;;19.30;47.00;;;;;;5020854;28;20117;-57
2022/11/18 06:02:53;;;;;;;1.30;0.85;;;19.30;47.00;;;;;;5054331;28;20591;-58
2022/11/18 06:05:21;;;;;;;2.13;1.20;;;19.30;47.00;;;;;;5037128;28;20025;-59
2022/11/18 06:07:46;;;;;;;2.25;0.98;;;19.30;47.00;;;;;;5054453;28;20041;-57
2022/11/18 06:10:20;;;;;;;1.77;0.80;;;19.30;47.00;;;;;;5054604;28;20101;-57
2022/11/18 06:12:49;;;;;;;2.65;0.93;;;19.30;47.00;;;;;;5036913;28;20467;-58
2022/11/18 06:15:22;;;;;;;2.00;1.02;;;19.30;47.00;;;;;;5036997;28;20021;-59
2022/11/18 06:18:05;;;;;;;2.28;1.08;;;19.30;47.00;;;;;;5054222;28;20048;-55
2022/11/18 06:20:35;;;;;;;3.65;1.08;;;19.30;47.00;;;;;;5036795;28;20048;-57
2022/11/18 06:23:00;;;;;;;1.30;0.80;;;19.30;47.00;;;;;;5036952;28;20045;-56
2022/11/18 06:25:27;;;;;;;1.58;0.80;;;19.30;47.00;;;;;;5040624;28;20078;-56
2022/11/18 06:27:58;;;;;;;1.63;0.95;;;19.30;47.00;;;;;;5057954;28;20029;-55
2022/11/18 06:30:24;;;;;;;2.50;1.15;;;19.30;47.10;;;;;;5057855;28;20043;-56
2022/11/18 06:32:49;;;;;;;2.40;0.95;;;19.30;47.10;;;;;;5058062;28;20449;-58
2022/11/18 06:35:15;;;;;;;2.08;1.02;;;19.30;47.10;;;;;;5058068;28;20064;-58
2022/11/18 06:37:41;;;;;;;1.75;0.93;;;19.30;47.10;;;;;;5057604;28;20119;-60
2022/11/18 06:40:07;;;;;;;1.35;0.80;;;19.30;47.00;;;;;;5040749;28;20037;-59
2022/11/18 06:45:17;;;;;;;1.58;1.00;;;19.30;47.00;;;;;;5058056;28;20099;-59
2022/11/18 06:47:43;;;;;;;2.15;1.00;;;19.30;47.60;;;;;;5057462;28;20021;-59
2022/11/18 06:50:09;;;;;;;2.83;1.00;;;19.30;47.00;;;;;;5058327;28;20456;-59
2022/11/18 06:52:35;;;;;;;2.92;1.00;;;19.30;47.00;;;;;;5057440;28;20040;-57
2022/11/18 06:55:01;;;;;;;2.15;0.90;;;19.30;47.00;;;;;;5057429;28;20041;-58
2022/11/18 06:57:27;;;;;;;2.08;0.93;;;19.30;47.00;;;;;;5057193;28;20025;-58
2022/11/18 06:59:53;;;;;;;2.10;1.10;;;19.30;47.00;;;;;;5057379;28;20036;-60
2022/11/18 07:02:19;;;;;;;1.38;0.95;;;19.30;47.00;;;;;;5057194;28;20131;-59
2022/11/18 07:04:45;;;;;;;1.73;0.70;;;19.30;46.90;;;;;;5056792;28;20033;-59
2022/11/18 07:07:11;;;;;;;2.80;1.10;;;19.30;46.90;;;;;;5057385;28;20033;-56
2022/11/18 07:09:37;;;;;;;2.72;1.00;;;19.30;46.90;;;;;;5057489;28;20029;-59
2022/11/18 07:12:03;;;;;;;2.90;1.30;;;19.30;46.90;;;;;;5022891;28;20040;-56
2022/11/18 07:14:29;;;;;;;3.17;1.00;;;19.30;47.00;;;;;;5023433;28;20094;-59
2022/11/18 07:16:55;;;;;;;2.40;0.90;;;19.30;46.90;;;;;;5022622;28;20082;-58
2022/11/18 07:19:21;;;;;;;2.35;1.17;;;19.30;46.90;;;;;;5057076;28;20112;-58
2022/11/18 07:21:47;;;;;;;1.83;0.93;;;19.30;46.90;;;;;;5039162;28;20041;-56
2022/11/18 07:24:14;;;;;;;2.30;1.02;;;19.30;46.90;;;;;;5038949;28;20039;-56
2022/11/18 07:26:41;;;;;;;1.85;0.80;;;19.30;46.80;;;;;;5039409;28;20055;-56
2022/11/18 07:29:07;;;;;;;2.70;0.93;;;19.30;46.80;;;;;;5039045;28;20342;-59
2022/11/18 07:31:36;;;;;;;2.80;0.90;;;19.30;46.80;;;;;;5038826;28;20056;-57
2022/11/18 07:34:02;;;;;;;1.83;1.00;;;19.20;46.80;;;;;;5056786;28;20115;-59
2022/11/18 07:36:28;;;;;;;2.08;0.90;;;19.30;46.80;;;;;;5056109;28;20413;-58
2022/11/18 07:38:57;;;;;;;1.10;0.80;;;19.30;46.80;;;;;;5039599;28;20033;-59
2022/11/18 07:41:28;;;;;;;3.95;1.00;;;19.30;46.80;;;;;;5056936;28;20032;-56
2022/11/18 07:43:55;;;;;;;1.83;0.82;;;19.30;46.80;;;;;;5056515;28;20036;-59
2022/11/18 07:46:29;;;;;;;2.42;0.95;;;19.30;46.80;;;;;;5039082;28;20064;-59
2022/11/18 07:48:58;;;;;;;2.92;1.00;;;19.30;46.80;;;;;;5056330;28;20049;-60
2022/11/18 07:51:26;;;;;;;1.88;0.98;;;19.30;46.80;;;;;;5056714;28;20028;-59
2022/11/18 07:53:52;;;;;;;1.80;1.00;;;19.30;46.80;;;;;;5039732;28;20377;-59
2022/11/18 07:56:19;;;;;;;1.85;0.93;;;19.30;46.80;;;;;;5056653;28;20087;-59
2022/11/18 07:58:45;;;;;;;2.40;1.05;;;19.30;46.80;;;;;;5038939;28;20033;-58
2022/11/18 08:01:13;;;;;;;1.35;0.90;;;19.30;46.70;;;;;;5039236;28;20083;-59
2022/11/18 08:03:39;;;;;;;2.25;1.00;;;19.30;46.80;;;;;;5039229;28;20506;-59
2022/11/18 08:06:06;;;;;;;2.90;1.05;;;19.30;46.70;;;;;;5056430;28;20029;-58
2022/11/18 08:08:33;;;;;;;2.78;1.00;;;19.30;46.70;;;;;;5056428;28;20056;-58
2022/11/18 08:11:01;;;;;;;1.42;0.70;;;19.30;46.70;;;;;;5038119;28;20368;-55
2022/11/18 08:13:27;;;;;;;1.88;1.02;;;19.30;46.70;;;;;;5056039;28;20059;-60
2022/11/18 08:15:54;;;;;;;2.35;0.90;;;19.30;46.70;;;;;;5038103;28;20035;-59
2022/11/18 08:18:21;;;;;;;2.55;1.00;;;19.30;46.60;;;;;;5056444;28;20049;-57
2022/11/18 08:20:47;;;;;;;1.08;0.70;;;19.30;46.60;;;;;;5038334;28;20033;-57
2022/11/18 08:23:14;;;;;;;2.22;0.90;;;19.30;46.60;;;;;;5055550;28;20087;-59
2022/11/18 08:25:41;;;;;;;1.35;0.80;;;19.40;46.60;;;;;;5055778;28;20035;-58
2022/11/18 08:28:07;;;;;;;2.28;0.90;;;19.30;46.60;;;;;;5055582;28;20025;-60
2022/11/18 08:30:33;;;;;;;2.03;0.95;;;19.30;46.60;;;;;;5038072;28;20036;-57
2022/11/18 08:32:59;;;;;;;2.58;0.80;;;19.30;46.50;;;;;;5055877;28;20112;-56
2022/11/18 08:35:27;;;;;;;1.88;0.77;;;19.30;46.50;;;;;;5055543;28;20025;-59
2022/11/18 08:37:52;;;;;;;3.58;0.77;;;19.30;46.50;;;;;;5021279;28;20060;-58
2022/11/18 08:40:18;;;;;;;1.48;0.73;;;19.30;46.50;;;;;;5021520;28;20064;-58
2022/11/18 08:42:44;;;;;;;1.67;1.00;;;19.30;46.50;;;;;;5055224;28;20094;-57
2022/11/18 08:45:11;;;;;;;2.33;0.90;;;19.30;46.40;;;;;;5038458;28;20021;-59
2022/11/18 08:47:37;;;;;;;1.10;0.77;;;19.40;46.50;;;;;;5055337;28;20029;-60
2022/11/18 08:50:05;;;;;;;2.45;0.90;;;19.30;46.40;;;;;;5038441;28;20274;-58
2022/11/18 08:52:31;;;;;;;4.00;0.90;;;19.40;46.50;;;;;;5055646;28;20032;-58
2022/11/18 08:54:57;;;;;;;2.30;1.20;;;19.30;46.40;;;;;;5055600;28;20021;-58
2022/11/18 08:57:23;;;;;;;1.65;1.20;;;19.30;46.40;;;;;;5055246;28;20032;-56
2022/11/18 08:59:49;;;;;;;1.73;0.80;;;19.30;46.40;;;;;;5055096;28;20033;-58
2022/11/18 09:02:16;;;;;;;1.42;0.90;;;19.40;46.40;;;;;;5055184;28;20032;-58
2022/11/18 09:04:42;;;;;;;1.35;0.80;;;19.40;46.40;;;;;;5054975;28;20029;-54
2022/11/18 09:07:08;;;;;;;1.63;0.80;;;19.40;46.40;;;;;;5055383;28;20033;-56
2022/11/18 09:09:35;;;;;;;1.88;0.95;;;19.40;46.30;;;;;;5037132;28;20029;-57
2022/11/18 09:12:01;;;;;;;1.73;0.80;;;19.40;46.30;;;;;;5037440;28;20040;-57
2022/11/18 09:14:27;;;;;;;1.02;0.50;;;19.40;46.30;;;;;;5038048;28;20036;-59
2022/11/18 09:16:53;;;;;;;1.33;0.75;;;19.40;46.30;;;;;;5054809;28;20399;-58
2022/11/18 09:19:19;;;;;;;1.42;0.75;;;19.40;46.30;;;;;;5054529;28;20029;-59
2022/11/18 09:21:45;;;;;;;1.80;0.70;;;19.40;46.20;;;;;;5037076;28;20029;-58
2022/11/18 09:24:10;;;;;;;1.23;0.77;;;19.40;46.20;;;;;;5054734;28;20033;-59
2022/11/18 09:26:36;;;;;;;2.03;1.00;;;19.40;46.20;;;;;;5054601;28;20029;-57
2022/11/18 09:29:03;;;;;;;1.67;1.02;;;19.40;46.20;;;;;;5055437;28;20031;-59
2022/11/18 09:31:29;;;;;;;2.53;0.93;;;19.40;46.20;;;;;;5055062;28;20033;-55
2022/11/18 09:33:57;;;;;;;1.20;0.60;;;19.40;46.20;;;;;;5054644;28;20029;-59
2022/11/18 09:36:24;;;;;;;1.35;0.70;;;19.40;46.80;;;;;;5054209;28;20447;-57
2022/11/18 09:38:51;;;;;;;2.28;0.85;;;19.40;46.20;;;;;;5021027;28;20110;-57
2022/11/18 09:41:32;;;;;;;1.45;0.65;;;19.40;46.10;;;;;;5036746;28;20025;-61
2022/11/18 09:44:19;;;;;;;2.05;0.90;;;19.50;46.20;;;;;;5037145;28;20154;-59
2022/11/18 09:46:53;;;;;;;2.00;0.75;;;19.40;46.10;;;;;;5055198;28;20051;-59
2022/11/18 09:49:40;;;;;;;1.55;0.60;;;19.40;46.10;;;;;;5036646;28;20096;-57
2022/11/18 09:52:43;;;;;;;2.35;0.60;;;19.40;46.10;;;;;;5036744;28;20061;-59
2022/11/18 09:55:16;;;;;;;2.28;0.90;;;19.50;46.10;;;;;;5051716;28;20048;-59
2022/11/18 09:57:43;;;;;;;1.85;0.80;;;19.50;46.10;;;;;;5054873;28;20036;-58
2022/11/18 10:00:22;;;;;;;2.42;0.80;;;19.50;46.10;;;;;;5040831;28;20449;-58
2022/11/18 10:03:00;;;;;;;2.08;0.88;;;19.50;46.00;;;;;;5041001;28;20048;-58
2022/11/18 10:05:42;;;;;;;1.30;0.80;;;19.50;46.00;;;;;;5058764;28;20407;-60
2022/11/18 10:08:27;;;;;;;1.98;1.10;;;19.50;46.00;;;;;;5058317;28;20067;-59
2022/11/18 10:11:23;;;;;;;2.53;0.90;;;19.50;45.90;;;;;;5041051;28;20095;-58
2022/11/18 10:14:38;;;;;;;1.80;0.88;;;19.50;45.90;;;;;;5058037;28;20037;-59
2022/11/18 10:17:38;;;;;;;2.65;1.00;;;19.50;45.90;;;;;;5033936;28;20449;-60
2022/11/18 10:20:16;;;;;;;2.45;0.77;;;19.50;45.90;;;;;;5040433;28;20035;-57
2022/11/18 10:23:20;;;;;;;2.92;0.90;;;19.50;45.90;;;;;;5040243;28;20029;-60
2022/11/18 10:25:45;;;;;;;2.08;0.90;;;19.50;45.90;;;;;;5040514;28;20119;-58
2022/11/18 10:28:16;;;;;;;1.13;0.57;;;19.40;45.80;;;;;;5057966;28;20112;-60
2022/11/18 10:30:42;;;;;;;1.15;0.60;;;19.50;45.90;;;;;;5057927;28;20094;-56
2022/11/18 10:33:18;;;;;;;2.03;0.75;;;19.50;45.90;;;;;;5058553;28;20036;-59
2022/11/18 10:35:44;;;;;;;1.10;0.68;;;19.50;45.90;;;;;;5058156;28;20126;-58
2022/11/18 10:38:13;;;;;;;2.88;0.90;;;19.50;45.90;;;;;;5057868;28;20037;-57
2022/11/18 10:40:51;;;;;;;3.50;1.10;;;19.50;45.90;;;;;;5057697;28;20021;-57
2022/11/18 10:43:56;;;;;;;0.93;0.70;;;19.50;45.90;;;;;;5057596;28;20051;-58
2022/11/18 10:46:31;;;;;;;2.75;0.75;;;19.50;45.80;;;;;;4976989;28;20044;-59
2022/11/18 10:49:09;;;;;;;2.45;0.95;;;19.50;45.80;;;;;;5048158;28;20052;-59
2022/11/18 10:51:37;;;;;;;1.65;0.70;;;19.50;45.80;;;;;;5023663;28;20403;-57
2022/11/18 10:54:22;;;;;;;2.83;0.82;;;19.50;45.80;;;;;;5057558;28;20033;-60
2022/11/18 10:56:53;;;;;;;3.25;1.20;;;19.50;45.80;;;;;;5057199;28;20090;-59
2022/11/18 10:59:45;;;;;;;2.63;1.00;;;19.50;45.80;;;;;;5039923;28;20108;-58
2022/11/18 11:02:15;;;;;;;3.13;1.10;;;19.50;45.80;;;;;;5057052;28;20037;-58
2022/11/18 11:04:43;;;;;;;2.90;1.13;;;19.50;45.80;;;;;;5057177;28;20368;-59
2022/11/18 11:07:26;;;;;;;2.13;0.95;;;19.50;45.80;;;;;;5039420;28;20045;-59
2022/11/18 11:10:12;;;;;;;2.22;1.10;;;19.50;45.80;;;;;;5056181;28;20029;-59
2022/11/18 11:12:46;;;;;;;1.45;0.70;;;19.50;45.80;;;;;;5056350;28;20508;-58
2022/11/18 11:15:23;;;;;;;1.30;0.70;;;19.50;45.80;;;;;;5056984;28;20086;-58
2022/11/18 11:20:40;;;;;;;2.38;1.02;;;19.50;45.80;;;;;;5056905;28;20033;-58
2022/11/18 11:23:10;;;;;;;3.00;0.90;;;19.50;45.80;;;;;;5057427;28;20041;-57
2022/11/18 11:25:44;;;;;;;2.17;0.80;;;19.50;45.90;;;;;;5039312;28;20116;-58
2022/11/18 11:28:24;;;;;;;2.40;1.00;;;19.50;45.90;;;;;;5057098;28;20029;-57
2022/11/18 11:31:01;;;;;;;2.38;0.95;;;19.50;45.90;;;;;;5038968;28;20029;-54
2022/11/18 11:34:10;;;;;;;2.03;1.20;;;19.50;45.90;;;;;;5039932;28;20033;-59
2022/11/18 11:37:11;;;;;;;3.47;1.30;;;19.50;45.90;;;;;;5056344;28;20033;-59
2022/11/18 11:39:47;;;;;;;2.30;0.80;;;19.50;45.90;;;;;;4969917;28;20335;-59
2022/11/18 11:42:31;;;;;;;3.10;1.00;;;19.50;45.90;;;;;;5022914;28;20045;-57
2022/11/18 11:44:57;;;;;;;2.40;1.17;;;19.50;45.90;;;;;;5039112;28;20403;-58
2022/11/18 11:47:48;;;;;;;2.95;1.13;;;19.50;45.90;;;;;;5039296;28;20047;-59
2022/11/18 11:50:54;;;;;;;2.78;1.13;;;19.50;46.00;;;;;;5056358;28;20351;-58
2022/11/18 11:53:45;;;;;;;3.10;1.00;;;19.50;46.00;;;;;;5056526;28;20452;-58
2022/11/18 11:56:37;;;;;;;2.75;1.27;;;19.50;46.00;;;;;;5022146;28;20598;-60
2022/11/18 11:59:26;;;;;;;2.10;0.95;;;19.50;46.10;;;;;;5056285;28;20025;-58
2022/11/18 12:02:20;;;;;;;3.58;1.35;;;19.50;46.10;;;;;;5056322;28;20033;-58
2022/11/18 12:04:51;;;;;;;3.10;1.10;;;19.50;46.20;;;;;;5056616;28;20033;-60
2022/11/18 12:07:29;;;;;;;2.45;1.10;;;19.50;46.20;;;;;;5056466;28;20036;-59
2022/11/18 12:10:22;;;;;;;2.17;0.93;;;19.50;46.20;;;;;;5055749;28;20033;-58
2022/11/18 12:13:32;;;;;;;3.28;1.30;;;19.50;46.20;;;;;;5055924;28;20025;-59
2022/11/18 12:16:10;;;;;;;1.45;0.80;;;19.50;46.20;;;;;;5038211;28;20025;-58
2022/11/18 12:19:15;;;;;;;2.13;1.17;;;19.50;46.20;;;;;;5038308;28;20092;-58
2022/11/18 12:21:44;;;;;;;2.00;0.90;;;19.50;46.20;;;;;;5055662;28;20475;-58
2022/11/18 12:24:16;;;;;;;3.55;1.15;;;19.60;46.30;;;;;;5055941;28;20052;-59
2022/11/18 12:26:43;;;;;;;1.90;0.95;;;19.50;46.20;;;;;;5055707;28;20102;-58
2022/11/18 12:29:18;;;;;;;1.95;1.00;;;19.50;46.20;;;;;;5055747;28;20083;-59
2022/11/18 12:32:03;;;;;;;3.38;1.48;;;19.60;46.20;;;;;;5055435;28;20029;-59
2022/11/18 12:34:40;;;;;;;2.42;1.13;;;19.50;46.20;;;;;;5055408;28;20033;-58
2022/11/18 12:37:25;;;;;;;1.98;0.73;;;19.60;46.20;;;;;;5055785;28;20416;-59
2022/11/18 12:39:57;;;;;;;1.63;0.80;;;19.50;46.10;;;;;;5055017;28;20037;-58
2022/11/18 12:45:39;;;;;;;2.28;1.00;;;19.60;46.20;;;;;;5055397;28;20116;-57
2022/11/18 12:48:39;;;;;;;2.00;0.80;;;19.60;46.20;;;;;;5037904;28;20116;-59
2022/11/18 12:51:14;;;;;;;1.75;1.05;;;19.60;46.20;;;;;;5011996;28;20040;-60
2022/11/18 12:53:41;;;;;;;1.60;0.80;;;19.60;46.20;;;;;;5055679;28;20025;-56
2022/11/18 12:56:22;;;;;;;1.55;0.88;;;19.60;46.20;;;;;;5037688;28;20043;-59
2022/11/18 12:58:56;;;;;;;2.35;0.80;;;19.60;46.20;;;;;;5055588;28;20040;-56
2022/11/18 13:01:23;;;;;;;;;;;19.60;46.20;;;;;;5055323;28;20353;-61
2022/11/18 13:03:50;;;;;;;2.63;1.00;;;19.60;46.20;;;;;;5037475;28;19917;-58
2022/11/18 13:06:23;;;;;;;1.85;0.88;;;19.60;46.20;;;;;;5055037;28;20104;-56
2022/11/18 13:08:59;;;;;;;1.85;0.90;;;19.60;46.20;;;;;;5037309;28;20437;-57
2022/11/18 13:11:46;;;;;;;3.35;0.90;;;19.60;46.20;;;;;;5054736;28;20440;-59
2022/11/18 13:20:32;;;;;;;3.50;1.20;;;19.60;46.20;;;;;;5037534;28;20110;-58
2022/11/18 13:25:45;;;;;;;2.78;0.90;;;19.60;46.20;;;;;;5055182;28;20033;-59
2022/11/18 13:28:20;;;;;;;2.45;1.15;;;19.50;46.20;;;;;;5037324;28;20041;-58
2022/11/18 13:31:04;;;;;;;2.30;0.85;;;19.50;46.20;;;;;;5054903;28;20025;-58
2022/11/18 13:33:36;;;;;;;2.35;1.02;;;19.50;46.20;;;;;;5036414;28;20403;-60
2022/11/18 13:36:02;;;;;;;1.73;0.80;;;19.50;46.20;;;;;;5054529;28;20467;-59
2022/11/18 13:38:27;;;;;;;2.00;0.80;;;19.50;46.20;;;;;;5054466;28;20108;-61
2022/11/18 13:41:12;;;;;;;1.95;0.80;;;19.50;46.20;;;;;;5020409;28;20032;-59